sensor_id;sensor_type;location;lat;lon;timestamp;pressure;altitude;pressure_sealevel;temperature;humidity
85319;BME280;75722;49.004;12.120;2024-03-23T00:55:41;97157.72;;;7.18;100.00
85319;BME280;75722;49.004;12.120;2024-03-23T00:58:07;97153.56;;;7.15;100.00
85319;BME280;75722;49.004;12.120;2024-03-23T01:00:33;97147.22;;;7.23;100.00
85319;BME280;75722;49.004;12.120;2024-03-23T01:02:58;97145.50;;;7.15;100.00
85319;BME280;75722;49.004;12.120;2024-03-23T01:05:23;97146.34;;;7.01;100.00
85319;BME280;75722;49.004;12.120;2024-03-23T01:07:49;97137.38;;;6.93;100.00
85319;BME280;75722;49.004;12.120;2024-03-23T01:10:14;97133.50;;;6.81;100.00
85319;BME280;75722;49.004;12.120;2024-03-23T01:12:39;97142.69;;;6.72;100.00
85319;BME280;75722;49.004;12.120;2024-03-23T01:15:05;97140.16;;;6.70;100.00
85319;BME280;75722;49.004;12.120;2024-03-23T01:17:30;97140.09;;;6.63;100.00
85319;BME280;75722;49.004;12.120;2024-03-23T01:19:55;97134.81;;;6.55;100.00
85319;BME280;75722;49.004;12.120;2024-03-23T01:22:21;97140.19;;;6.55;100.00
85319;BME280;75722;49.004;12.120;2024-03-23T01:24:46;97132.13;;;6.40;100.00
85319;BME280;75722;49.004;12.120;2024-03-23T01:27:11;97136.47;;;6.26;100.00
85319;BME280;75722;49.004;12.120;2024-03-23T01:29:37;97129.72;;;6.15;100.00
85319;BME280;75722;49.004;12.120;2024-03-23T01:32:02;97121.75;;;6.07;100.00
85319;BME280;75722;49.004;12.120;2024-03-23T01:34:27;97115.22;;;6.01;100.00
85319;BME280;75722;49.004;12.120;2024-03-23T01:36:53;97112.53;;;6.01;100.00
85319;BME280;75722;49.004;12.120;2024-03-23T01:39:18;97109.88;;;6.16;100.00
85319;BME280;75722;49.004;12.120;2024-03-23T01:41:44;97106.16;;;6.32;100.00
85319;BME280;75722;49.004;12.120;2024-03-23T01:44:09;97106.34;;;6.31;100.00
85319;BME280;75722;49.004;12.120;2024-03-23T01:46:36;97097.44;;;6.45;100.00
85319;BME280;75722;49.004;12.120;2024-03-23T01:49:03;97091.34;;;6.36;100.00
85319;BME280;75722;49.004;12.120;2024-03-23T01:51:28;97093.19;;;6.21;100.00
85319;BME280;75722;49.004;12.120;2024-03-23T01:53:56;97088.28;;;6.09;100.00
85319;BME280;75722;49.004;12.120;2024-03-23T01:56:21;97083.53;;;6.11;100.00
85319;BME280;75722;49.004;12.120;2024-03-23T01:58:47;97071.69;;;6.06;100.00
85319;BME280;75722;49.004;12.120;2024-03-23T02:01:12;97065.81;;;6.02;100.00
85319;BME280;75722;49.004;12.120;2024-03-23T02:03:37;97068.69;;;5.85;100.00
85319;BME280;75722;49.004;12.120;2024-03-23T02:06:03;97064.75;;;5.73;100.00
85319;BME280;75722;49.004;12.120;2024-03-23T02:08:30;97056.97;;;5.63;100.00
85319;BME280;75722;49.004;12.120;2024-03-23T02:10:56;97056.97;;;5.63;100.00
85319;BME280;75722;49.004;12.120;2024-03-23T02:13:21;97055.84;;;5.57;100.00
85319;BME280;75722;49.004;12.120;2024-03-23T02:15:46;97057.59;;;5.50;100.00
85319;BME280;75722;49.004;12.120;2024-03-23T02:18:13;97047.06;;;5.48;100.00
85319;BME280;75722;49.004;12.120;2024-03-23T02:20:39;97053.50;;;5.39;100.00
85319;BME280;75722;49.004;12.120;2024-03-23T02:23:05;97041.09;;;5.53;100.00
85319;BME280;75722;49.004;12.120;2024-03-23T02:25:33;97043.28;;;5.34;100.00
85319;BME280;75722;49.004;12.120;2024-03-23T02:27:59;97034.78;;;5.31;100.00
85319;BME280;75722;49.004;12.120;2024-03-23T02:30:25;97038.13;;;5.33;100.00
85319;BME280;75722;49.004;12.120;2024-03-23T02:32:51;97030.16;;;5.39;100.00
85319;BME280;75722;49.004;12.120;2024-03-23T02:35:16;97033.94;;;5.30;100.00
85319;BME280;75722;49.004;12.120;2024-03-23T02:37:42;97027.63;;;5.23;100.00
85319;BME280;75722;49.004;12.120;2024-03-23T02:40:07;97027.19;;;5.34;100.00
85319;BME280;75722;49.004;12.120;2024-03-23T02:42:32;97027.25;;;5.26;100.00
85319;BME280;75722;49.004;12.120;2024-03-23T02:44:58;97022.97;;;5.17;100.00
85319;BME280;75722;49.004;12.120;2024-03-23T02:47:24;97024.06;;;5.07;100.00
85319;BME280;75722;49.004;12.120;2024-03-23T02:49:49;97018.84;;;5.06;100.00
85319;BME280;75722;49.004;12.120;2024-03-23T02:52:14;97015.75;;;5.17;100.00
85319;BME280;75722;49.004;12.120;2024-03-23T02:54:40;97014.31;;;5.30;100.00
85319;BME280;75722;49.004;12.120;2024-03-23T02:57:07;97010.63;;;5.31;100.00
85319;BME280;75722;49.004;12.120;2024-03-23T02:59:32;97007.81;;;5.24;100.00
85319;BME280;75722;49.004;12.120;2024-03-23T03:01:58;97010.03;;;5.20;100.00
85319;BME280;75722;49.004;12.120;2024-03-23T03:04:25;97006.78;;;5.10;100.00
85319;BME280;75722;49.004;12.120;2024-03-23T03:06:50;97000.50;;;5.18;100.00
85319;BME280;75722;49.004;12.120;2024-03-23T03:09:15;97011.47;;;5.31;100.00
85319;BME280;75722;49.004;12.120;2024-03-23T03:11:41;96999.97;;;5.37;100.00
85319;BME280;75722;49.004;12.120;2024-03-23T03:14:06;97002.78;;;5.59;100.00
85319;BME280;75722;49.004;12.120;2024-03-23T03:16:33;96993.81;;;5.82;100.00
85319;BME280;75722;49.004;12.120;2024-03-23T03:18:58;96986.38;;;5.84;100.00
85319;BME280;75722;49.004;12.120;2024-03-23T03:21:23;96988.63;;;5.81;100.00
85319;BME280;75722;49.004;12.120;2024-03-23T03:23:49;96985.66;;;5.75;100.00
85319;BME280;75722;49.004;12.120;2024-03-23T03:26:16;96972.69;;;5.79;100.00
85319;BME280;75722;49.004;12.120;2024-03-23T03:28:42;96966.78;;;5.84;100.00
85319;BME280;75722;49.004;12.120;2024-03-23T03:31:08;96960.53;;;6.13;100.00
85319;BME280;75722;49.004;12.120;2024-03-23T03:33:34;96959.44;;;5.93;100.00
85319;BME280;75722;49.004;12.120;2024-03-23T03:35:59;96949.34;;;6.10;100.00
85319;BME280;75722;49.004;12.120;2024-03-23T03:38:24;96954.72;;;5.80;100.00
85319;BME280;75722;49.004;12.120;2024-03-23T03:40:49;96954.44;;;5.89;100.00
85319;BME280;75722;49.004;12.120;2024-03-23T03:43:15;96961.47;;;5.90;100.00
85319;BME280;75722;49.004;12.120;2024-03-23T03:45:40;96967.94;;;5.96;100.00
85319;BME280;75722;49.004;12.120;2024-03-23T03:48:06;96953.03;;;5.94;100.00
85319;BME280;75722;49.004;12.120;2024-03-23T03:50:31;96938.31;;;5.89;100.00
85319;BME280;75722;49.004;12.120;2024-03-23T03:52:56;96940.63;;;5.93;100.00
85319;BME280;75722;49.004;12.120;2024-03-23T03:55:22;96940.53;;;6.01;100.00
85319;BME280;75722;49.004;12.120;2024-03-23T03:57:47;96935.25;;;6.08;100.00
85319;BME280;75722;49.004;12.120;2024-03-23T04:00:12;96932.44;;;6.16;100.00
85319;BME280;75722;49.004;12.120;2024-03-23T04:02:38;96932.44;;;6.16;100.00
85319;BME280;75722;49.004;12.120;2024-03-23T04:05:04;96942.47;;;6.22;100.00
85319;BME280;75722;49.004;12.120;2024-03-23T04:07:30;96937.91;;;6.23;100.00
85319;BME280;75722;49.004;12.120;2024-03-23T04:09:55;96930.25;;;6.41;100.00
85319;BME280;75722;49.004;12.120;2024-03-23T04:12:21;96902.72;;;6.39;100.00
85319;BME280;75722;49.004;12.120;2024-03-23T04:14:46;96899.53;;;6.51;100.00
85319;BME280;75722;49.004;12.120;2024-03-23T04:17:11;96892.94;;;6.53;100.00
85319;BME280;75722;49.004;12.120;2024-03-23T04:19:37;96900.28;;;6.45;100.00
85319;BME280;75722;49.004;12.120;2024-03-23T04:22:02;96898.56;;;6.37;100.00
85319;BME280;75722;49.004;12.120;2024-03-23T04:24:29;96893.88;;;6.24;100.00
85319;BME280;75722;49.004;12.120;2024-03-23T04:26:54;96903.91;;;6.15;100.00
85319;BME280;75722;49.004;12.120;2024-03-23T04:29:19;96896.28;;;6.19;100.00
85319;BME280;75722;49.004;12.120;2024-03-23T04:31:45;96890.16;;;6.25;100.00
85319;BME280;75722;49.004;12.120;2024-03-23T04:34:11;96890.34;;;6.23;100.00
85319;BME280;75722;49.004;12.120;2024-03-23T04:36:36;96889.41;;;6.31;100.00
85319;BME280;75722;49.004;12.120;2024-03-23T04:39:01;96882.28;;;6.23;100.00
85319;BME280;75722;49.004;12.120;2024-03-23T04:41:27;96879.66;;;6.30;100.00
85319;BME280;75722;49.004;12.120;2024-03-23T04:43:52;96872.69;;;6.36;100.00
85319;BME280;75722;49.004;12.120;2024-03-23T04:46:18;96869.88;;;6.44;100.00
85319;BME280;75722;49.004;12.120;2024-03-23T04:48:43;96867.63;;;6.48;100.00
85319;BME280;75722;49.004;12.120;2024-03-23T04:51:20;96863.53;;;6.52;100.00
85319;BME280;75722;49.004;12.120;2024-03-23T04:53:46;96851.75;;;6.53;100.00
85319;BME280;75722;49.004;12.120;2024-03-23T04:56:13;96858.41;;;6.57;100.00
85319;BME280;75722;49.004;12.120;2024-03-23T04:58:38;96854.44;;;6.53;100.00
85319;BME280;75722;49.004;12.120;2024-03-23T05:01:04;96852.81;;;6.59;100.00
85319;BME280;75722;49.004;12.120;2024-03-23T05:03:29;96849.13;;;6.60;100.00
85319;BME280;75722;49.004;12.120;2024-03-23T05:05:54;96848.94;;;6.61;100.00
85319;BME280;75722;49.004;12.120;2024-03-23T05:08:20;96837.34;;;6.61;100.00
85319;BME280;75722;49.004;12.120;2024-03-23T05:10:45;96831.75;;;6.62;100.00
85319;BME280;75722;49.004;12.120;2024-03-23T05:13:11;96828.69;;;6.65;100.00
85319;BME280;75722;49.004;12.120;2024-03-23T05:15:37;96832.88;;;6.75;100.00
85319;BME280;75722;49.004;12.120;2024-03-23T05:18:02;96823.41;;;6.79;100.00
85319;BME280;75722;49.004;12.120;2024-03-23T05:20:28;96821.75;;;6.78;100.00
85319;BME280;75722;49.004;12.120;2024-03-23T05:22:54;96819.44;;;6.75;100.00
85319;BME280;75722;49.004;12.120;2024-03-23T05:25:20;96817.81;;;6.80;100.00
85319;BME280;75722;49.004;12.120;2024-03-23T05:27:45;96818.06;;;6.86;100.00
85319;BME280;75722;49.004;12.120;2024-03-23T05:30:11;96818.31;;;6.91;100.00
85319;BME280;75722;49.004;12.120;2024-03-23T05:32:36;96820.13;;;6.84;100.00
85319;BME280;75722;49.004;12.120;2024-03-23T05:35:01;96824.84;;;6.82;100.00
85319;BME280;75722;49.004;12.120;2024-03-23T05:37:27;96827.63;;;6.88;100.00
85319;BME280;75722;49.004;12.120;2024-03-23T05:39:52;96810.81;;;6.86;100.00
85319;BME280;75722;49.004;12.120;2024-03-23T05:42:18;96809.00;;;6.93;100.00
85319;BME280;75722;49.004;12.120;2024-03-23T05:44:47;96819.22;;;7.05;100.00
85319;BME280;75722;49.004;12.120;2024-03-23T05:47:12;96809.50;;;7.04;100.00
85319;BME280;75722;49.004;12.120;2024-03-23T05:49:39;96811.56;;;7.09;100.00
85319;BME280;75722;49.004;12.120;2024-03-23T05:52:06;96807.91;;;7.16;100.00
85319;BME280;75722;49.004;12.120;2024-03-23T05:54:32;96797.53;;;7.13;100.00
85319;BME280;75722;49.004;12.120;2024-03-23T05:56:57;96803.75;;;7.14;100.00
85319;BME280;75722;49.004;12.120;2024-03-23T05:59:22;96793.34;;;7.04;100.00
85319;BME280;75722;49.004;12.120;2024-03-23T06:01:48;96787.91;;;6.97;100.00
85319;BME280;75722;49.004;12.120;2024-03-23T06:04:13;96787.91;;;6.97;100.00
85319;BME280;75722;49.004;12.120;2024-03-23T06:06:41;96786.09;;;7.04;100.00
85319;BME280;75722;49.004;12.120;2024-03-23T06:09:07;96776.19;;;7.54;100.00
85319;BME280;75722;49.004;12.120;2024-03-23T06:11:32;96762.03;;;9.48;100.00
85319;BME280;75722;49.004;12.120;2024-03-23T06:13:57;96769.91;;;8.77;100.00
85319;BME280;75722;49.004;12.120;2024-03-23T06:16:23;96754.13;;;8.73;100.00
85319;BME280;75722;49.004;12.120;2024-03-23T06:18:50;96757.50;;;8.55;100.00
85319;BME280;75722;49.004;12.120;2024-03-23T06:21:15;96748.94;;;8.25;100.00
85319;BME280;75722;49.004;12.120;2024-03-23T06:23:41;96745.84;;;8.28;100.00
85319;BME280;75722;49.004;12.120;2024-03-23T06:26:07;96737.66;;;9.09;100.00
85319;BME280;75722;49.004;12.120;2024-03-23T06:28:32;96716.44;;;10.23;100.00
85319;BME280;75722;49.004;12.120;2024-03-23T06:30:57;96711.66;;;11.63;100.00
85319;BME280;75722;49.004;12.120;2024-03-23T06:33:22;96692.38;;;14.26;100.00
85319;BME280;75722;49.004;12.120;2024-03-23T06:35:52;96701.88;;;18.24;45.90
85319;BME280;75722;49.004;12.120;2024-03-23T06:38:18;96711.72;;;22.30;38.35
85319;BME280;75722;49.004;12.120;2024-03-23T06:40:44;96710.97;;;21.86;37.92
85319;BME280;75722;49.004;12.120;2024-03-23T06:43:13;96699.22;;;23.47;35.19
85319;BME280;75722;49.004;12.120;2024-03-23T06:45:39;96705.13;;;23.82;34.47
85319;BME280;75722;49.004;12.120;2024-03-23T06:48:05;96703.03;;;24.16;34.27
85319;BME280;75722;49.004;12.120;2024-03-23T06:50:33;96691.44;;;24.83;32.93
85319;BME280;75722;49.004;12.120;2024-03-23T06:52:58;96698.28;;;23.24;34.59
85319;BME280;75722;49.004;12.120;2024-03-23T06:55:24;96697.91;;;24.09;33.67
85319;BME280;75722;49.004;12.120;2024-03-23T06:57:51;96700.47;;;25.61;31.57
85319;BME280;75722;49.004;12.120;2024-03-23T07:00:17;96701.34;;;23.64;34.25
85319;BME280;75722;49.004;12.120;2024-03-23T07:02:42;96727.09;;;18.62;42.04
85319;BME280;75722;49.004;12.120;2024-03-23T07:05:09;96731.13;;;16.85;45.88
85319;BME280;75722;49.004;12.120;2024-03-23T07:07:34;96728.25;;;14.92;50.95
85319;BME280;75722;49.004;12.120;2024-03-23T07:10:00;96723.69;;;14.11;52.94
85319;BME280;75722;49.004;12.120;2024-03-23T07:12:25;96722.75;;;13.06;55.80
85319;BME280;75722;49.004;12.120;2024-03-23T07:14:50;96722.28;;;12.38;58.40
85319;BME280;75722;49.004;12.120;2024-03-23T07:17:16;96721.78;;;12.29;59.50
85319;BME280;75722;49.004;12.120;2024-03-23T07:19:43;96710.34;;;12.27;59.71
85319;BME280;75722;49.004;12.120;2024-03-23T07:22:08;96720.00;;;12.35;58.99
85319;BME280;75722;49.004;12.120;2024-03-23T07:24:34;96711.22;;;12.09;59.83
85319;BME280;75722;49.004;12.120;2024-03-23T07:26:59;96712.69;;;12.11;59.58
85319;BME280;75722;49.004;12.120;2024-03-23T07:29:24;96720.94;;;11.86;60.95
85319;BME280;75722;49.004;12.120;2024-03-23T07:31:52;96717.78;;;11.58;61.86
85319;BME280;75722;49.004;12.120;2024-03-23T07:34:18;96740.38;;;11.33;63.42
85319;BME280;75722;49.004;12.120;2024-03-23T07:36:43;96735.88;;;10.89;66.00
85319;BME280;75722;49.004;12.120;2024-03-23T07:39:09;96739.22;;;10.66;69.60
85319;BME280;75722;49.004;12.120;2024-03-23T07:41:34;96747.47;;;10.71;70.72
85319;BME280;75722;49.004;12.120;2024-03-23T07:44:00;96748.16;;;10.67;71.96
85319;BME280;75722;49.004;12.120;2024-03-23T07:46:26;96758.34;;;10.90;69.34
85319;BME280;75722;49.004;12.120;2024-03-23T07:48:51;96764.69;;;10.84;69.65
85319;BME280;75722;49.004;12.120;2024-03-23T07:51:21;96770.75;;;10.79;69.44
85319;BME280;75722;49.004;12.120;2024-03-23T07:53:47;96798.41;;;10.62;71.14
85319;BME280;75722;49.004;12.120;2024-03-23T07:56:14;96814.03;;;10.28;81.50
85319;BME280;75722;49.004;12.120;2024-03-23T07:58:44;96800.13;;;10.50;100.00
85319;BME280;75722;49.004;12.120;2024-03-23T08:01:14;96818.66;;;10.78;94.29
85319;BME280;75722;49.004;12.120;2024-03-23T08:03:41;96812.56;;;10.83;69.71
85319;BME280;75722;49.004;12.120;2024-03-23T08:06:14;96815.84;;;10.92;72.00
85319;BME280;75722;49.004;12.120;2024-03-23T08:08:41;96823.03;;;10.80;63.95
85319;BME280;75722;49.004;12.120;2024-03-23T08:11:07;96830.16;;;10.74;66.67
85319;BME280;75722;49.004;12.120;2024-03-23T08:13:38;96823.03;;;10.80;64.51
85319;BME280;75722;49.004;12.120;2024-03-23T08:16:03;96825.03;;;10.91;65.55
85319;BME280;75722;49.004;12.120;2024-03-23T08:18:30;96833.44;;;11.01;63.12
85319;BME280;75722;49.004;12.120;2024-03-23T08:23:31;96841.09;;;10.86;64.81
85319;BME280;75722;49.004;12.120;2024-03-23T08:26:02;96841.28;;;10.65;65.64
85319;BME280;75722;49.004;12.120;2024-03-23T08:28:28;96815.72;;;10.55;65.08
85319;BME280;75722;49.004;12.120;2024-03-23T08:30:54;96835.41;;;10.36;65.47
85319;BME280;75722;49.004;12.120;2024-03-23T08:33:20;96824.97;;;10.47;68.50
85319;BME280;75722;49.004;12.120;2024-03-23T08:35:59;96855.91;;;10.58;66.51
85319;BME280;75722;49.004;12.120;2024-03-23T08:38:25;96855.75;;;10.78;64.48
85319;BME280;75722;49.004;12.120;2024-03-23T08:43:26;96859.16;;;10.67;64.29
85319;BME280;75722;49.004;12.120;2024-03-23T08:45:52;96861.88;;;10.67;63.83
85319;BME280;75722;49.004;12.120;2024-03-23T08:48:19;96868.16;;;10.86;63.18
85319;BME280;75722;49.004;12.120;2024-03-23T08:50:46;96862.22;;;11.02;63.00
85319;BME280;75722;49.004;12.120;2024-03-23T08:53:11;96870.22;;;10.65;64.82
85319;BME280;75722;49.004;12.120;2024-03-23T08:55:37;96871.88;;;10.66;65.73
85319;BME280;75722;49.004;12.120;2024-03-23T08:58:02;96874.63;;;10.59;65.60
85319;BME280;75722;49.004;12.120;2024-03-23T09:00:29;96871.84;;;10.98;65.35
85319;BME280;75722;49.004;12.120;2024-03-23T09:02:54;96880.00;;;10.91;63.14
85319;BME280;75722;49.004;12.120;2024-03-23T09:05:20;96877.91;;;10.68;64.52
85319;BME280;75722;49.004;12.120;2024-03-23T09:07:46;96874.69;;;10.46;63.96
85319;BME280;75722;49.004;12.120;2024-03-23T09:10:11;96887.50;;;10.64;63.50
85319;BME280;75722;49.004;12.120;2024-03-23T09:12:36;96889.59;;;10.62;63.81
85319;BME280;75722;49.004;12.120;2024-03-23T09:15:02;96895.59;;;10.96;65.38
85319;BME280;75722;49.004;12.120;2024-03-23T09:17:27;96893.72;;;10.97;63.14
85319;BME280;75722;49.004;12.120;2024-03-23T09:19:53;96908.06;;;10.97;62.35
85319;BME280;75722;49.004;12.120;2024-03-23T09:22:18;96907.69;;;11.19;62.76
85319;BME280;75722;49.004;12.120;2024-03-23T09:24:43;96912.25;;;11.44;62.65
85319;BME280;75722;49.004;12.120;2024-03-23T09:27:09;96916.38;;;11.91;60.96
85319;BME280;75722;49.004;12.120;2024-03-23T09:29:34;96908.47;;;12.27;58.27
85319;BME280;75722;49.004;12.120;2024-03-23T09:31:59;96909.03;;;14.80;52.39
85319;BME280;75722;49.004;12.120;2024-03-23T09:34:24;96892.06;;;18.49;43.40
85319;BME280;75722;49.004;12.120;2024-03-23T09:36:53;96883.56;;;17.81;44.04
85319;BME280;75722;49.004;12.120;2024-03-23T09:39:18;96885.41;;;17.70;43.78
85319;BME280;75722;49.004;12.120;2024-03-23T09:41:44;96890.31;;;16.37;47.14
85319;BME280;75722;49.004;12.120;2024-03-23T09:44:10;96885.00;;;16.30;45.91
85319;BME280;75722;49.004;12.120;2024-03-23T09:46:35;96885.09;;;16.13;45.46
85319;BME280;75722;49.004;12.120;2024-03-23T09:49:02;96893.78;;;16.87;44.58
85319;BME280;75722;49.004;12.120;2024-03-23T09:51:30;96867.66;;;18.42;40.21
85319;BME280;75722;49.004;12.120;2024-03-23T09:53:56;96885.56;;;19.74;38.06
85319;BME280;75722;49.004;12.120;2024-03-23T09:56:21;96897.50;;;21.86;35.14
85319;BME280;75722;49.004;12.120;2024-03-23T09:58:47;96890.84;;;20.87;36.73
85319;BME280;75722;49.004;12.120;2024-03-23T10:01:12;96894.06;;;19.78;37.30
85319;BME280;75722;49.004;12.120;2024-03-23T10:03:47;96928.34;;;18.82;39.48
85319;BME280;75722;49.004;12.120;2024-03-23T10:06:12;96911.72;;;17.33;38.97
85319;BME280;75722;49.004;12.120;2024-03-23T10:08:37;96926.81;;;16.80;41.13
85319;BME280;75722;49.004;12.120;2024-03-23T10:11:14;96922.50;;;15.04;42.63
85319;BME280;75722;49.004;12.120;2024-03-23T10:13:41;96927.03;;;13.99;46.76
85319;BME280;75722;49.004;12.120;2024-03-23T10:16:07;96920.63;;;12.98;49.43
85319;BME280;75722;49.004;12.120;2024-03-23T10:18:37;96965.06;;;13.58;47.94
85319;BME280;75722;49.004;12.120;2024-03-23T10:23:31;96980.44;;;12.48;49.90
85319;BME280;75722;49.004;12.120;2024-03-23T10:26:21;96990.44;;;11.91;51.76
85319;BME280;75722;49.004;12.120;2024-03-23T10:31:18;97027.38;;;11.41;53.15
85319;BME280;75722;49.004;12.120;2024-03-23T10:33:47;97033.09;;;12.03;51.90
85319;BME280;75722;49.004;12.120;2024-03-23T10:36:13;97038.19;;;14.79;45.16
85319;BME280;75722;49.004;12.120;2024-03-23T10:38:41;97034.44;;;16.52;41.99
85319;BME280;75722;49.004;12.120;2024-03-23T10:41:08;97019.75;;;23.17;31.10
85319;BME280;75722;49.004;12.120;2024-03-23T10:43:36;97031.84;;;23.02;30.07
85319;BME280;75722;49.004;12.120;2024-03-23T10:46:01;97034.28;;;20.60;32.87
85319;BME280;75722;49.004;12.120;2024-03-23T10:48:27;97043.31;;;22.66;29.53
85319;BME280;75722;49.004;12.120;2024-03-23T10:50:53;97038.09;;;21.70;29.79
85319;BME280;75722;49.004;12.120;2024-03-23T10:53:19;97038.09;;;20.64;30.25
85319;BME280;75722;49.004;12.120;2024-03-23T10:55:46;97034.69;;;17.45;33.48
85319;BME280;75722;49.004;12.120;2024-03-23T10:58:11;97052.72;;;17.74;33.57
85319;BME280;75722;49.004;12.120;2024-03-23T11:00:38;97009.81;;;17.19;35.22
85319;BME280;75722;49.004;12.120;2024-03-23T11:05:57;97017.84;;;20.39;32.06
85319;BME280;75722;49.004;12.120;2024-03-23T11:08:37;97035.59;;;17.28;35.32
85319;BME280;75722;49.004;12.120;2024-03-23T11:13:48;97044.34;;;15.50;39.04
85319;BME280;75722;49.004;12.120;2024-03-23T11:16:27;97058.78;;;14.75;40.14
85319;BME280;75722;49.004;12.120;2024-03-23T11:18:54;97053.25;;;13.50;43.61
85319;BME280;75722;49.004;12.120;2024-03-23T11:21:55;97032.03;;;12.98;44.71
85319;BME280;75722;49.004;12.120;2024-03-23T11:24:21;97040.63;;;12.64;45.47
85319;BME280;75722;49.004;12.120;2024-03-23T11:26:48;97050.13;;;11.91;44.43
85319;BME280;75722;49.004;12.120;2024-03-23T11:29:15;97050.41;;;12.09;44.55
85319;BME280;75722;49.004;12.120;2024-03-23T11:31:47;97069.28;;;12.60;44.34
85319;BME280;75722;49.004;12.120;2024-03-23T11:34:12;97072.81;;;12.60;44.14
85319;BME280;75722;49.004;12.120;2024-03-23T11:36:38;97072.56;;;15.09;40.25
85319;BME280;75722;49.004;12.120;2024-03-23T11:39:19;97075.53;;;18.17;34.58
85319;BME280;75722;49.004;12.120;2024-03-23T11:41:49;97085.75;;;19.97;32.37
85319;BME280;75722;49.004;12.120;2024-03-23T11:46:41;97098.25;;;16.23;37.72
85319;BME280;75722;49.004;12.120;2024-03-23T11:49:06;97112.56;;;17.92;35.83
85319;BME280;75722;49.004;12.120;2024-03-23T11:51:32;97117.25;;;17.97;34.17
85319;BME280;75722;49.004;12.120;2024-03-23T11:54:08;97127.41;;;17.69;34.56
85319;BME280;75722;49.004;12.120;2024-03-23T11:56:33;97113.72;;;17.69;34.90
85319;BME280;75722;49.004;12.120;2024-03-23T11:58:58;97103.53;;;18.30;32.20
85319;BME280;75722;49.004;12.120;2024-03-23T12:01:23;97101.09;;;19.61;31.09
85319;BME280;75722;49.004;12.120;2024-03-23T12:03:49;97104.66;;;18.77;31.79
85319;BME280;75722;49.004;12.120;2024-03-23T12:06:19;97087.09;;;17.09;34.14
85319;BME280;75722;49.004;12.120;2024-03-23T12:08:44;97126.31;;;17.42;33.65
85319;BME280;75722;49.004;12.120;2024-03-23T12:11:14;97090.47;;;14.28;38.68
85319;BME280;75722;49.004;12.120;2024-03-23T12:13:42;97122.94;;;15.07;38.71
85319;BME280;75722;49.004;12.120;2024-03-23T12:18:37;97131.50;;;16.37;35.52
85319;BME280;75722;49.004;12.120;2024-03-23T12:21:04;97099.75;;;16.14;36.08
85319;BME280;75722;49.004;12.120;2024-03-23T12:23:29;97083.56;;;18.83;32.42
85319;BME280;75722;49.004;12.120;2024-03-23T12:25:54;97079.69;;;18.74;32.11
85319;BME280;75722;49.004;12.120;2024-03-23T12:28:20;97083.94;;;21.05;29.23
85319;BME280;75722;49.004;12.120;2024-03-23T12:30:45;97107.41;;;19.52;31.02
85319;BME280;75722;49.004;12.120;2024-03-23T12:33:10;97110.94;;;17.64;33.04
85319;BME280;75722;49.004;12.120;2024-03-23T12:35:36;97121.75;;;15.44;36.73
85319;BME280;75722;49.004;12.120;2024-03-23T12:38:01;97123.84;;;14.59;37.34
85319;BME280;75722;49.004;12.120;2024-03-23T12:40:27;97125.81;;;13.80;38.60
85319;BME280;75722;49.004;12.120;2024-03-23T12:42:53;97130.81;;;13.03;41.41
85319;BME280;75722;49.004;12.120;2024-03-23T12:45:18;97130.81;;;13.03;39.63
85319;BME280;75722;49.004;12.120;2024-03-23T12:47:44;97119.69;;;12.55;40.40
85319;BME280;75722;49.004;12.120;2024-03-23T12:50:09;97123.53;;;11.71;42.30
85319;BME280;75722;49.004;12.120;2024-03-23T12:52:35;97134.94;;;11.48;42.13
85319;BME280;75722;49.004;12.120;2024-03-23T12:55:01;97125.78;;;11.10;43.51
85319;BME280;75722;49.004;12.120;2024-03-23T12:57:26;97119.00;;;10.87;42.95
85319;BME280;75722;49.004;12.120;2024-03-23T12:59:53;97132.72;;;10.92;42.73
85319;BME280;75722;49.004;12.120;2024-03-23T13:02:21;97134.00;;;10.83;41.62
85319;BME280;75722;49.004;12.120;2024-03-23T13:04:51;97122.56;;;10.81;42.16
85319;BME280;75722;49.004;12.120;2024-03-23T13:07:17;97114.66;;;11.25;40.61
85319;BME280;75722;49.004;12.120;2024-03-23T13:09:43;97115.38;;;11.39;40.43
85319;BME280;75722;49.004;12.120;2024-03-23T13:12:09;97093.19;;;11.23;41.00
85319;BME280;75722;49.004;12.120;2024-03-23T13:14:34;97094.47;;;10.75;41.63
85319;BME280;75722;49.004;12.120;2024-03-23T13:17:00;97105.34;;;10.55;41.01
85319;BME280;75722;49.004;12.120;2024-03-23T13:19:26;97113.06;;;10.58;41.91
85319;BME280;75722;49.004;12.120;2024-03-23T13:21:54;97123.50;;;11.00;41.82
85319;BME280;75722;49.004;12.120;2024-03-23T13:24:23;97116.91;;;10.89;40.47
85319;BME280;75722;49.004;12.120;2024-03-23T13:26:52;97113.00;;;11.17;42.23
85319;BME280;75722;49.004;12.120;2024-03-23T13:29:21;97110.81;;;11.00;40.68
85319;BME280;75722;49.004;12.120;2024-03-23T13:31:47;97124.63;;;10.85;40.97
85319;BME280;75722;49.004;12.120;2024-03-23T13:34:13;97127.22;;;10.60;41.27
85319;BME280;75722;49.004;12.120;2024-03-23T13:36:46;97119.88;;;10.67;40.96
85319;BME280;75722;49.004;12.120;2024-03-23T13:39:12;97121.81;;;10.46;41.04
85319;BME280;75722;49.004;12.120;2024-03-23T13:41:45;97125.13;;;10.42;41.74
85319;BME280;75722;49.004;12.120;2024-03-23T13:44:12;97134.16;;;10.08;43.19
85319;BME280;75722;49.004;12.120;2024-03-23T13:46:38;97127.91;;;10.01;43.57
85319;BME280;75722;49.004;12.120;2024-03-23T13:49:04;97132.88;;;9.63;43.67
85319;BME280;75722;49.004;12.120;2024-03-23T13:51:30;97137.25;;;9.58;44.39
85319;BME280;75722;49.004;12.120;2024-03-23T13:53:56;97143.25;;;9.53;44.82
85319;BME280;75722;49.004;12.120;2024-03-23T13:56:24;97151.34;;;9.46;47.04
85319;BME280;75722;49.004;12.120;2024-03-23T13:58:49;97141.59;;;9.45;47.38
85319;BME280;75722;49.004;12.120;2024-03-23T14:01:15;97126.44;;;9.51;47.71